METAR Data
IDs: Format: Raw Decoded Include TAF

Data at: 1340 UTC 20 Oct 2021

EGPH 201320Z 26013KT 9999 SCT045 12/06 Q0991
EGPH 201250Z 26013KT 9999 -RA FEW025 SCT039 11/07 Q0991
EGPH 201220Z 25014KT 9999 FEW028 SCT045 12/07 Q0991
EGPH 201150Z 25015KT 9999 FEW028 SCT046 13/07 Q0991
EGPH 201120Z 25014KT 9999 FEW024 SCT040 12/07 Q0991
EGPH 201050Z 26012KT 9999 FEW024 12/07 Q0992
EGPH 201020Z 26012KT 9999 FEW025 11/07 Q0992
EGPH 200950Z 24013KT 9999 FEW020 SCT045 11/08 Q0992
EGPH 200920Z 23017KT 9999 VCSH FEW018 SCT044 10/07 Q0993
EGPH 200850Z 24009KT 9999 VCSH SCT020 10/07 Q0992
EGPH 200820Z 25010KT 9999 SCT039 10/07 Q0992
EGPH 200750Z 25009KT 9999 FEW037 09/07 Q0992
EGPH 200720Z 25009KT 9999 FEW034 09/07 Q0992
EGPH 200650Z 24013KT 9999 FEW041 09/07 Q0993
EGPH 200620Z 24013KT CAVOK 09/07 Q0993
EGPH 200550Z 25012KT CAVOK 09/07 Q0994
EGPH 200520Z 25011KT 9999 SCT045 09/07 Q0994
EGPH 200450Z 25019KT 8000 -RA FEW013 BKN018 10/08 Q0993 RERA
EGPH 200420Z 25012KT 9999 FEW025 BKN041 10/08 Q0994
EGPH 200350Z 25012KT CAVOK 10/08 Q0994
EGPH 200320Z 24011KT 9999 SCT033 10/08 Q0994
EGPH 200220Z 25012KT 9999 BKN033 11/08 Q0995
EGPH 200150Z 24011KT CAVOK 10/09 Q0995
EGPH 200120Z 26009KT 9999 FEW026 SCT041 11/09 Q0996
EGPH 200050Z 26011KT 9999 -RA SCT014 BKN026 12/10 Q0996
EGPH 200020Z 25014KT 9999 SCT015 SCT024 OVC039 12/10 Q0996
EGPH 192350Z 25013KT 9000 -RA SCT010 BKN024 12/11 Q0996 RERA
EGPH 192320Z 26013G23KT 230V300 4600 RA BKN012 BKN024 13/11 Q0996
EGPH 192250Z 24017KT 9999 FEW023 14/11 Q0995
EGPH 192220Z 25014KT 9999 FEW023 SCT035 14/11 Q0995
EGPH 192150Z 25013KT 9999 FEW023 SCT036 15/12 Q0995
EGPH 192120Z 24013KT 9999 FEW024 15/12 Q0995
EGPH 192050Z 25011KT 9999 FEW028 16/13 Q0995
EGPH 192020Z 25008KT CAVOK 15/13 Q0995
EGPH 191950Z 24011KT CAVOK 16/14 Q0995
EGPH 191920Z 23013KT 9999 SCT020 16/14 Q0995
EGPH 191850Z 23011KT 9999 BKN022 16/14 Q0995
EGPH 191820Z 23013KT 9999 -RA FEW007 17/15 Q0996
EGPH 191750Z 23014KT 9999 -RA FEW014 17/15 Q0996
EGPH 191720Z 24013KT CAVOK 17/14 Q0996
EGPH 191650Z 24012KT 9999 FEW030 17/15 Q0996
EGPH 191620Z 22015KT 9999 FEW008 BKN026 17/15 Q0996
EGPH 191550Z 23014KT 9999 FEW015 BKN024 17/15 Q0996
EGPH 191520Z 23016KT 9999 BKN022 17/15 Q0996
EGPH 191450Z 22011KT 9999 BKN017 BKN023 17/15 Q0997
EGPH 191420Z 22013KT 9999 BKN018 17/14 Q0997
EGPH 191350Z 23007KT 9999 -RA BKN020 17/14 Q0998
EGPH 191320Z VRB03KT 9999 -RA BKN018 16/14 Q0998
EGPH 191250Z 20008KT 9999 -RA FEW017 SCT044 16/13 Q0999
EGPH 191220Z 16006KT 140V210 9999 -RA FEW020 BKN037 16/13 Q0999
EGPH 191150Z 21002KT 9999 FEW020 BKN038 16/14 Q1000
EGPH 191120Z 20005KT 9999 SCT027 BKN040 16/14 Q1001
EGPH 191050Z 20004KT 130V260 9999 VCSH FEW016 SCT049 15/14 Q1001
EGPH 191020Z 01001KT 9999 -RA FEW016 15/14 Q1001
EGPH 190950Z VRB02KT 9999 -RA FEW016 15/14 Q1002
EGPH 190920Z VRB01KT 9999 -RA FEW016 15/13 Q1002
EGPH 190850Z VRB02KT 9999 -RA FEW018 15/13 Q1002
EGPH 190820Z 20006KT 160V230 9999 -RA FEW017 15/13 Q1002
EGPH 190750Z 19005KT 150V280 9999 FEW016 15/13 Q1003
EGPH 190720Z 23009KT 9999 FEW016 15/13 Q1003
EGPH 190650Z 21010KT 9999 FEW016 15/13 Q1004
EGPH 190620Z 23007KT 9999 FEW016 14/13 Q1004
EGPH 190550Z VRB03KT 9999 FEW016 14/13 Q1004
EGPH 190520Z VRB03KT 9999 FEW014 15/13 Q1005
EGPH 190450Z VRB03KT 9999 FEW014 14/13 Q1005
EGPH 190420Z VRB02KT 9999 FEW016 12/12 Q1005
EGPH 190350Z VRB02KT 9999 SCT047 12/11 Q1006
EGPH 190320Z VRB01KT CAVOK 12/11 Q1006
EGPH 190250Z 24005KT CAVOK 13/12 Q1006
EGPH 190220Z 27004KT 230V310 CAVOK 14/13 Q1006
EGPH 190150Z 22009KT CAVOK 15/13 Q1007